AXM5432 WMKP-WBGG
Flight info
| Callsign | AXM5432 |
|---|---|
| Flight time | 1h 45m |
| Altitude | 35000 |
| Route | BOGUK DCT ANBIK Y507 VBA G582 VPK M761 ESBAL ESBAL1B |
| Aircraft | A320/M-SDE3FGHIRWY/LB1 |
Departure
| Time | 2026-04-29 13:10 |
|---|---|
| Airport | Penang International Airport (WMKP) |
Arrival
| Time | 2026-04-29 14:55 |
|---|---|
| Airport | Kuching International Airport (WBGG) |
| Time | Latitude | Longitude | Altitude | Speed | Heading |
|---|---|---|---|---|---|
| 2026-04-29 12:14 | 5.29224 | 100.26645 | 26 ft | 0 kts | 311° |
| 2026-04-29 12:26 | 5.29224 | 100.26646 | 23 ft | 2 kts | 311° |
| 2026-04-29 12:27 | 5.29213 | 100.26658 | 23 ft | 2 kts | 311° |
| 2026-04-29 12:27 | 5.29202 | 100.26670 | 23 ft | 2 kts | 313° |
| 2026-04-29 12:27 | 5.29191 | 100.26682 | 25 ft | 2 kts | 313° |
| 2026-04-29 12:27 | 5.29181 | 100.26694 | 23 ft | 2 kts | 319° |
| 2026-04-29 12:28 | 5.29167 | 100.26703 | 26 ft | 2 kts | 350° |
| 2026-04-29 12:28 | 5.29152 | 100.26700 | 26 ft | 2 kts | 51° |
| 2026-04-29 12:28 | 5.29148 | 100.26696 | 25 ft | 0 kts | 50° |
| 2026-04-29 12:46 | 5.29150 | 100.26697 | 23 ft | 0 kts | 47° |
| 2026-04-29 13:04 | 5.29166 | 100.26712 | 24 ft | 8 kts | 37° |
| 2026-04-29 13:04 | 5.29210 | 100.26748 | 23 ft | 7 kts | 40° |
| 2026-04-29 13:04 | 5.29247 | 100.26780 | 23 ft | 7 kts | 42° |
| 2026-04-29 13:04 | 5.29271 | 100.26816 | 23 ft | 4 kts | 85° |
| 2026-04-29 13:05 | 5.29242 | 100.26855 | 23 ft | 8 kts | 128° |
| 2026-04-29 13:05 | 5.29204 | 100.26898 | 23 ft | 9 kts | 139° |
| 2026-04-29 13:05 | 5.29209 | 100.26961 | 25 ft | 13 kts | 45° |
| 2026-04-29 13:05 | 5.29268 | 100.27020 | 23 ft | 11 kts | 45° |
| 2026-04-29 13:06 | 5.29319 | 100.27071 | 23 ft | 10 kts | 45° |
| 2026-04-29 13:06 | 5.29371 | 100.27115 | 23 ft | 13 kts | 37° |
| 2026-04-29 13:06 | 5.29475 | 100.27204 | 23 ft | 26 kts | 40° |
| 2026-04-29 13:06 | 5.29634 | 100.27346 | 22 ft | 32 kts | 42° |
| 2026-04-29 13:07 | 5.29790 | 100.27488 | 23 ft | 30 kts | 41° |
| 2026-04-29 13:07 | 5.29952 | 100.27630 | 23 ft | 31 kts | 49° |
| 2026-04-29 13:07 | 5.30100 | 100.27794 | 23 ft | 32 kts | 40° |
| 2026-04-29 13:07 | 5.30269 | 100.27944 | 23 ft | 33 kts | 42° |
| 2026-04-29 13:08 | 5.30438 | 100.28100 | 22 ft | 33 kts | 44° |
| 2026-04-29 13:08 | 5.30604 | 100.28262 | 22 ft | 33 kts | 43° |
| 2026-04-29 13:08 | 5.30776 | 100.28421 | 23 ft | 34 kts | 42° |
| 2026-04-29 13:08 | 5.30905 | 100.28566 | 23 ft | 23 kts | 79° |
| 2026-04-29 13:09 | 5.30850 | 100.28667 | 27 ft | 10 kts | 135° |
| 2026-04-29 13:09 | 5.30798 | 100.28667 | 25 ft | 8 kts | 211° |
| 2026-04-29 13:09 | 5.30690 | 100.28570 | 25 ft | 50 kts | 223° |
| 2026-04-29 13:09 | 5.30265 | 100.28182 | 24 ft | 113 kts | 222° |
| 2026-04-29 13:10 | 5.29553 | 100.27537 | 26 ft | 161 kts | 222° |
| 2026-04-29 13:10 | 5.28688 | 100.26701 | 376 ft | 177 kts | 223° |
| 2026-04-29 13:10 | 5.27782 | 100.25840 | 829 ft | 188 kts | 224° |
| 2026-04-29 13:10 | 5.26676 | 100.25027 | 1004 ft | 210 kts | 200° |
| 2026-04-29 13:11 | 5.25164 | 100.24977 | 1236 ft | 233 kts | 160° |
| 2026-04-29 13:11 | 5.23721 | 100.25862 | 1577 ft | 256 kts | 143° |
| 2026-04-29 13:11 | 5.22302 | 100.26996 | 2233 ft | 264 kts | 141° |
| 2026-04-29 13:11 | 5.20877 | 100.28185 | 3008 ft | 268 kts | 140° |
| 2026-04-29 13:12 | 5.19438 | 100.29398 | 3819 ft | 272 kts | 140° |
| 2026-04-29 13:12 | 5.17981 | 100.30621 | 4620 ft | 275 kts | 139° |
| 2026-04-29 13:12 | 5.16507 | 100.31852 | 5371 ft | 278 kts | 138° |
| 2026-04-29 13:12 | 5.15253 | 100.33322 | 6141 ft | 278 kts | 119° |
| 2026-04-29 13:13 | 5.14285 | 100.35005 | 6903 ft | 279 kts | 118° |
| 2026-04-29 13:13 | 5.13321 | 100.36703 | 7649 ft | 281 kts | 118° |
| 2026-04-29 13:13 | 5.12352 | 100.38416 | 8385 ft | 283 kts | 118° |
| 2026-04-29 13:13 | 5.11376 | 100.40142 | 9124 ft | 286 kts | 118° |
| 2026-04-29 13:14 | 5.10392 | 100.41883 | 9837 ft | 288 kts | 118° |
| 2026-04-29 13:14 | 5.09390 | 100.43653 | 10291 ft | 300 kts | 118° |
| 2026-04-29 13:14 | 5.08321 | 100.45547 | 10418 ft | 323 kts | 118° |
| 2026-04-29 13:14 | 5.07181 | 100.47573 | 10563 ft | 343 kts | 118° |
| 2026-04-29 13:15 | 5.05987 | 100.49688 | 10992 ft | 352 kts | 118° |
| 2026-04-29 13:15 | 5.04788 | 100.51807 | 11540 ft | 355 kts | 119° |
| 2026-04-29 13:15 | 5.03564 | 100.53973 | 12122 ft | 358 kts | 119° |
| 2026-04-29 13:15 | 5.02329 | 100.56158 | 12697 ft | 361 kts | 119° |
| 2026-04-29 13:16 | 5.01089 | 100.58355 | 13290 ft | 364 kts | 119° |
| 2026-04-29 13:16 | 4.99838 | 100.60574 | 13861 ft | 366 kts | 119° |
| 2026-04-29 13:16 | 4.98577 | 100.62808 | 14363 ft | 369 kts | 119° |
| 2026-04-29 13:16 | 4.97308 | 100.65055 | 14842 ft | 372 kts | 119° |
| 2026-04-29 13:17 | 4.96026 | 100.67320 | 15313 ft | 375 kts | 119° |
| 2026-04-29 13:17 | 4.94734 | 100.69598 | 15786 ft | 378 kts | 119° |
| 2026-04-29 13:17 | 4.93434 | 100.71892 | 16252 ft | 380 kts | 119° |
| 2026-04-29 13:17 | 4.92122 | 100.74212 | 16712 ft | 383 kts | 119° |
| 2026-04-29 13:18 | 4.90802 | 100.76549 | 17173 ft | 386 kts | 119° |
| 2026-04-29 13:18 | 4.89476 | 100.78899 | 17615 ft | 389 kts | 119° |
| 2026-04-29 13:18 | 4.88136 | 100.81271 | 18055 ft | 392 kts | 119° |
| 2026-04-29 13:18 | 4.86788 | 100.83654 | 18445 ft | 394 kts | 119° |
| 2026-04-29 13:19 | 4.85433 | 100.86048 | 18823 ft | 396 kts | 119° |
| 2026-04-29 13:19 | 4.84065 | 100.88464 | 19210 ft | 398 kts | 119° |
| 2026-04-29 13:19 | 4.82695 | 100.90885 | 19610 ft | 400 kts | 119° |
| 2026-04-29 13:19 | 4.81319 | 100.93319 | 19994 ft | 402 kts | 119° |
| 2026-04-29 13:20 | 4.79939 | 100.95762 | 20369 ft | 404 kts | 119° |
| 2026-04-29 13:20 | 4.78551 | 100.98216 | 20734 ft | 405 kts | 119° |
| 2026-04-29 13:20 | 4.77174 | 101.00645 | 21085 ft | 407 kts | 119° |
| 2026-04-29 13:20 | 4.75770 | 101.03120 | 21449 ft | 409 kts | 119° |
| 2026-04-29 13:21 | 4.74363 | 101.05600 | 21809 ft | 410 kts | 119° |
| 2026-04-29 13:21 | 4.72947 | 101.08091 | 22140 ft | 412 kts | 119° |
| 2026-04-29 13:21 | 4.71518 | 101.10591 | 22491 ft | 414 kts | 119° |
| 2026-04-29 13:21 | 4.70081 | 101.13107 | 22832 ft | 416 kts | 119° |
| 2026-04-29 13:22 | 4.68642 | 101.15625 | 23163 ft | 418 kts | 119° |
| 2026-04-29 13:22 | 4.67193 | 101.18160 | 23475 ft | 420 kts | 119° |
| 2026-04-29 13:22 | 4.65740 | 101.20701 | 23734 ft | 421 kts | 119° |
| 2026-04-29 13:22 | 4.64280 | 101.23254 | 23993 ft | 423 kts | 119° |
| 2026-04-29 13:23 | 4.62813 | 101.25825 | 24279 ft | 425 kts | 119° |
| 2026-04-29 13:23 | 4.61341 | 101.28403 | 24531 ft | 427 kts | 119° |
| 2026-04-29 13:23 | 4.59862 | 101.30996 | 24789 ft | 429 kts | 119° |
| 2026-04-29 13:23 | 4.58376 | 101.33596 | 25021 ft | 431 kts | 119° |
| 2026-04-29 13:24 | 4.56882 | 101.36212 | 25268 ft | 433 kts | 118° |
| 2026-04-29 13:24 | 4.55381 | 101.38839 | 25499 ft | 435 kts | 118° |
| 2026-04-29 13:24 | 4.53874 | 101.41479 | 25735 ft | 437 kts | 118° |
| 2026-04-29 13:24 | 4.52358 | 101.44132 | 25981 ft | 439 kts | 118° |
| 2026-04-29 13:25 | 4.50839 | 101.46793 | 26222 ft | 441 kts | 118° |
| 2026-04-29 13:25 | 4.47775 | 101.52153 | 26689 ft | 445 kts | 118° |
| 2026-04-29 13:25 | 4.46234 | 101.54847 | 26941 ft | 446 kts | 118° |
| 2026-04-29 13:26 | 4.44687 | 101.57547 | 27175 ft | 448 kts | 118° |
| 2026-04-29 13:26 | 4.43154 | 101.60224 | 27391 ft | 450 kts | 118° |
| 2026-04-29 13:26 | 4.41597 | 101.62946 | 27593 ft | 451 kts | 118° |
| 2026-04-29 13:26 | 4.40032 | 101.65681 | 27809 ft | 453 kts | 118° |
| 2026-04-29 13:27 | 4.38464 | 101.68416 | 28006 ft | 455 kts | 118° |
| 2026-04-29 13:27 | 4.36886 | 101.71177 | 28185 ft | 457 kts | 118° |
| 2026-04-29 13:27 | 4.35307 | 101.73941 | 28376 ft | 459 kts | 118° |
| 2026-04-29 13:27 | 4.33714 | 101.76724 | 28562 ft | 460 kts | 118° |
| 2026-04-29 13:28 | 4.32120 | 101.79510 | 28757 ft | 462 kts | 118° |
| 2026-04-29 13:28 | 4.30520 | 101.82305 | 28951 ft | 463 kts | 118° |
| 2026-04-29 13:28 | 4.28913 | 101.85109 | 29138 ft | 465 kts | 118° |
| 2026-04-29 13:28 | 4.27301 | 101.87925 | 29329 ft | 466 kts | 118° |
| 2026-04-29 13:29 | 4.25685 | 101.90746 | 29521 ft | 467 kts | 118° |
| 2026-04-29 13:29 | 4.24069 | 101.93571 | 29802 ft | 467 kts | 117° |
| 2026-04-29 13:29 | 4.22453 | 101.96393 | 30060 ft | 466 kts | 117° |
| 2026-04-29 13:29 | 4.20840 | 101.99209 | 30295 ft | 466 kts | 117° |
| 2026-04-29 13:30 | 4.19226 | 102.02024 | 30529 ft | 466 kts | 117° |
| 2026-04-29 13:30 | 4.17612 | 102.04835 | 30772 ft | 465 kts | 118° |
| 2026-04-29 13:30 | 4.15997 | 102.07649 | 31001 ft | 465 kts | 118° |
| 2026-04-29 13:30 | 4.14386 | 102.10460 | 31245 ft | 465 kts | 117° |
| 2026-04-29 13:31 | 4.12778 | 102.13271 | 31490 ft | 465 kts | 117° |
| 2026-04-29 13:31 | 4.11170 | 102.16075 | 31737 ft | 464 kts | 118° |
| 2026-04-29 13:31 | 4.09563 | 102.18875 | 31992 ft | 464 kts | 118° |
| 2026-04-29 13:31 | 4.07956 | 102.21676 | 32254 ft | 463 kts | 118° |
| 2026-04-29 13:32 | 4.06353 | 102.24472 | 32512 ft | 463 kts | 118° |
| 2026-04-29 13:32 | 4.04770 | 102.27229 | 32770 ft | 462 kts | 118° |
| 2026-04-29 13:32 | 4.03167 | 102.30022 | 33036 ft | 462 kts | 118° |
| 2026-04-29 13:32 | 4.01578 | 102.32794 | 33305 ft | 461 kts | 118° |
| 2026-04-29 13:33 | 3.99976 | 102.35591 | 33566 ft | 461 kts | 118° |
| 2026-04-29 13:33 | 3.98382 | 102.38377 | 33828 ft | 460 kts | 118° |
| 2026-04-29 13:33 | 3.96790 | 102.41158 | 34059 ft | 460 kts | 118° |
| 2026-04-29 13:33 | 3.95198 | 102.43933 | 34289 ft | 459 kts | 118° |
| 2026-04-29 13:34 | 3.93608 | 102.46700 | 34514 ft | 459 kts | 118° |
| 2026-04-29 13:34 | 3.92019 | 102.49468 | 34747 ft | 458 kts | 118° |
| 2026-04-29 13:34 | 3.88848 | 102.55003 | 34878 ft | 458 kts | 118° |
| 2026-04-29 13:35 | 3.85675 | 102.60524 | 34874 ft | 457 kts | 118° |
| 2026-04-29 13:35 | 3.82504 | 102.66045 | 34874 ft | 457 kts | 118° |
| 2026-04-29 13:36 | 3.79330 | 102.71566 | 34874 ft | 457 kts | 118° |
| 2026-04-29 13:36 | 3.76156 | 102.77089 | 34873 ft | 457 kts | 118° |
| 2026-04-29 13:37 | 3.73012 | 102.82576 | 34863 ft | 458 kts | 118° |
| 2026-04-29 13:37 | 3.69839 | 102.88105 | 34860 ft | 458 kts | 118° |
| 2026-04-29 13:38 | 3.67177 | 102.92735 | 34856 ft | 458 kts | 118° |
| 2026-04-29 13:38 | 3.63997 | 102.98265 | 34856 ft | 458 kts | 118° |
| 2026-04-29 13:39 | 3.60839 | 103.03760 | 34866 ft | 458 kts | 118° |
| 2026-04-29 13:39 | 3.57660 | 103.09289 | 34851 ft | 458 kts | 118° |
| 2026-04-29 13:40 | 3.54480 | 103.14816 | 34867 ft | 458 kts | 118° |
| 2026-04-29 13:40 | 3.51308 | 103.20344 | 34857 ft | 458 kts | 118° |
| 2026-04-29 13:41 | 3.48137 | 103.25864 | 34865 ft | 458 kts | 118° |
| 2026-04-29 13:41 | 3.44951 | 103.31397 | 34861 ft | 458 kts | 118° |
| 2026-04-29 13:42 | 3.41775 | 103.36916 | 34863 ft | 458 kts | 118° |
| 2026-04-29 13:42 | 3.38781 | 103.42528 | 34869 ft | 456 kts | 110° |
| 2026-04-29 13:43 | 3.36964 | 103.48591 | 34857 ft | 455 kts | 104° |
| 2026-04-29 13:43 | 3.35241 | 103.54679 | 34879 ft | 454 kts | 104° |
| 2026-04-29 13:44 | 3.33517 | 103.60756 | 34884 ft | 454 kts | 105° |
| 2026-04-29 13:44 | 3.31799 | 103.66832 | 34886 ft | 454 kts | 105° |
| 2026-04-29 13:45 | 3.30081 | 103.72908 | 34884 ft | 454 kts | 105° |
| 2026-04-29 13:45 | 3.28369 | 103.78950 | 34893 ft | 454 kts | 105° |
| 2026-04-29 13:46 | 3.26653 | 103.85022 | 34891 ft | 454 kts | 105° |
| 2026-04-29 13:46 | 3.24937 | 103.91093 | 34897 ft | 453 kts | 105° |
| 2026-04-29 13:47 | 3.23216 | 103.97157 | 34908 ft | 453 kts | 105° |
| 2026-04-29 13:47 | 3.21494 | 104.03220 | 34908 ft | 453 kts | 105° |
| 2026-04-29 13:48 | 3.19783 | 104.09268 | 34908 ft | 453 kts | 105° |
| 2026-04-29 13:48 | 3.18071 | 104.15334 | 34909 ft | 452 kts | 105° |
| 2026-04-29 13:49 | 3.16380 | 104.21400 | 34908 ft | 452 kts | 104° |
| 2026-04-29 13:49 | 3.14745 | 104.27430 | 34910 ft | 452 kts | 104° |
| 2026-04-29 13:50 | 3.13109 | 104.33509 | 34910 ft | 452 kts | 104° |
| 2026-04-29 13:50 | 3.11453 | 104.39580 | 34911 ft | 452 kts | 104° |
| 2026-04-29 13:51 | 3.09772 | 104.45642 | 34914 ft | 452 kts | 104° |
| 2026-04-29 13:51 | 3.08096 | 104.51689 | 34914 ft | 452 kts | 104° |
| 2026-04-29 13:52 | 3.06429 | 104.57757 | 34916 ft | 452 kts | 104° |
| 2026-04-29 13:52 | 3.04764 | 104.63821 | 34915 ft | 452 kts | 104° |
| 2026-04-29 13:53 | 3.03095 | 104.69889 | 34914 ft | 452 kts | 104° |
| 2026-04-29 13:53 | 3.01420 | 104.75954 | 34915 ft | 452 kts | 104° |
| 2026-04-29 13:54 | 2.99740 | 104.82019 | 34918 ft | 452 kts | 104° |
| 2026-04-29 13:54 | 2.98060 | 104.88083 | 34918 ft | 452 kts | 104° |
| 2026-04-29 13:55 | 2.96396 | 104.94113 | 34914 ft | 453 kts | 104° |
| 2026-04-29 13:55 | 2.94729 | 105.00186 | 34914 ft | 453 kts | 104° |
| 2026-04-29 13:56 | 2.93055 | 105.06263 | 34918 ft | 453 kts | 104° |
| 2026-04-29 13:56 | 2.91377 | 105.12338 | 34920 ft | 453 kts | 104° |
| 2026-04-29 13:57 | 2.89686 | 105.18412 | 34924 ft | 453 kts | 105° |
| 2026-04-29 13:57 | 2.88002 | 105.24483 | 34925 ft | 453 kts | 104° |
| 2026-04-29 13:58 | 2.86336 | 105.30557 | 34926 ft | 453 kts | 105° |
| 2026-04-29 13:58 | 2.84664 | 105.36630 | 34928 ft | 452 kts | 105° |
| 2026-04-29 13:59 | 2.82988 | 105.42699 | 34929 ft | 452 kts | 105° |
| 2026-04-29 13:59 | 2.81323 | 105.48720 | 34929 ft | 452 kts | 105° |
| 2026-04-29 14:00 | 2.79644 | 105.54775 | 34932 ft | 452 kts | 105° |
| 2026-04-29 14:00 | 2.77968 | 105.60845 | 34930 ft | 452 kts | 105° |
| 2026-04-29 14:01 | 2.76294 | 105.66904 | 34932 ft | 452 kts | 105° |
| 2026-04-29 14:01 | 2.74620 | 105.72966 | 34931 ft | 452 kts | 105° |
| 2026-04-29 14:02 | 2.72949 | 105.79026 | 34928 ft | 452 kts | 105° |
| 2026-04-29 14:02 | 2.71271 | 105.85092 | 34928 ft | 452 kts | 105° |
| 2026-04-29 14:03 | 2.69592 | 105.91153 | 34931 ft | 452 kts | 105° |
| 2026-04-29 14:03 | 2.67918 | 105.97218 | 34934 ft | 452 kts | 105° |
| 2026-04-29 14:04 | 2.66243 | 106.03279 | 34932 ft | 452 kts | 105° |
| 2026-04-29 14:04 | 2.64567 | 106.09341 | 34933 ft | 452 kts | 105° |
| 2026-04-29 14:05 | 2.62895 | 106.15400 | 34936 ft | 452 kts | 105° |
| 2026-04-29 14:05 | 2.61234 | 106.21422 | 34937 ft | 452 kts | 105° |
| 2026-04-29 14:06 | 2.59550 | 106.27479 | 34935 ft | 452 kts | 105° |
| 2026-04-29 14:06 | 2.57868 | 106.33535 | 34936 ft | 452 kts | 105° |
| 2026-04-29 14:07 | 2.56191 | 106.39590 | 34942 ft | 452 kts | 105° |
| 2026-04-29 14:07 | 2.54519 | 106.45645 | 34943 ft | 451 kts | 105° |
| 2026-04-29 14:08 | 2.52865 | 106.51687 | 34942 ft | 450 kts | 105° |
| 2026-04-29 14:08 | 2.51216 | 106.57727 | 34941 ft | 450 kts | 105° |
| 2026-04-29 14:09 | 2.49563 | 106.63761 | 34942 ft | 450 kts | 105° |
| 2026-04-29 14:09 | 2.47908 | 106.69791 | 34940 ft | 450 kts | 105° |
| 2026-04-29 14:10 | 2.46244 | 106.75816 | 34938 ft | 449 kts | 105° |
| 2026-04-29 14:10 | 2.44581 | 106.81841 | 34938 ft | 449 kts | 105° |
| 2026-04-29 14:11 | 2.42923 | 106.87861 | 34937 ft | 449 kts | 105° |
| 2026-04-29 14:11 | 2.41257 | 106.93883 | 34936 ft | 449 kts | 105° |
| 2026-04-29 14:12 | 2.39591 | 106.99906 | 34932 ft | 449 kts | 105° |
| 2026-04-29 14:12 | 2.37932 | 107.05929 | 34932 ft | 449 kts | 105° |
| 2026-04-29 14:13 | 2.36290 | 107.11910 | 34935 ft | 449 kts | 105° |
| 2026-04-29 14:13 | 2.34621 | 107.17928 | 34934 ft | 449 kts | 105° |
| 2026-04-29 14:14 | 2.32947 | 107.23951 | 34932 ft | 449 kts | 105° |
| 2026-04-29 14:14 | 2.31280 | 107.29968 | 34932 ft | 449 kts | 105° |
| 2026-04-29 14:15 | 2.29608 | 107.35986 | 34936 ft | 449 kts | 105° |
| 2026-04-29 14:15 | 2.27931 | 107.41996 | 34936 ft | 449 kts | 105° |
| 2026-04-29 14:16 | 2.26255 | 107.48012 | 34932 ft | 449 kts | 105° |
| 2026-04-29 14:16 | 2.24587 | 107.54033 | 34932 ft | 449 kts | 105° |
| 2026-04-29 14:17 | 2.22917 | 107.60047 | 34932 ft | 449 kts | 105° |
| 2026-04-29 14:17 | 2.21265 | 107.66025 | 34928 ft | 449 kts | 105° |
| 2026-04-29 14:18 | 2.19598 | 107.72033 | 34930 ft | 449 kts | 105° |
| 2026-04-29 14:18 | 2.17920 | 107.78051 | 34933 ft | 449 kts | 105° |
| 2026-04-29 14:19 | 2.16243 | 107.84062 | 34934 ft | 448 kts | 105° |
| 2026-04-29 14:19 | 2.14572 | 107.90064 | 34930 ft | 448 kts | 105° |
| 2026-04-29 14:20 | 2.12904 | 107.96068 | 34931 ft | 448 kts | 105° |
| 2026-04-29 14:20 | 2.11233 | 108.02071 | 34930 ft | 448 kts | 105° |
| 2026-04-29 14:21 | 2.09553 | 108.08067 | 34929 ft | 448 kts | 105° |
| 2026-04-29 14:21 | 2.07873 | 108.14064 | 34928 ft | 448 kts | 106° |
| 2026-04-29 14:22 | 2.06196 | 108.20051 | 34926 ft | 448 kts | 105° |
| 2026-04-29 14:22 | 2.04523 | 108.26050 | 34926 ft | 448 kts | 105° |
| 2026-04-29 14:23 | 2.02854 | 108.32049 | 34923 ft | 448 kts | 105° |
| 2026-04-29 14:23 | 2.01177 | 108.38042 | 34923 ft | 448 kts | 106° |
| 2026-04-29 14:24 | 1.99493 | 108.44032 | 34924 ft | 448 kts | 105° |
| 2026-04-29 14:24 | 1.97819 | 108.50025 | 34924 ft | 447 kts | 105° |
| 2026-04-29 14:25 | 1.96185 | 108.55985 | 34926 ft | 448 kts | 105° |
| 2026-04-29 14:25 | 1.94558 | 108.61996 | 34928 ft | 448 kts | 105° |
| 2026-04-29 14:26 | 1.92937 | 108.68005 | 34926 ft | 448 kts | 105° |
| 2026-04-29 14:26 | 1.91305 | 108.74011 | 34927 ft | 448 kts | 105° |
| 2026-04-29 14:27 | 1.89671 | 108.80016 | 34927 ft | 448 kts | 105° |
| 2026-04-29 14:28 | 1.87219 | 108.89015 | 34922 ft | 447 kts | 105° |
| 2026-04-29 14:28 | 1.85861 | 108.93999 | 34922 ft | 447 kts | 105° |
| 2026-04-29 14:29 | 1.84223 | 108.99998 | 34919 ft | 447 kts | 105° |
| 2026-04-29 14:29 | 1.82588 | 109.05992 | 34916 ft | 447 kts | 105° |
| 2026-04-29 14:30 | 1.80957 | 109.11991 | 34911 ft | 447 kts | 105° |
| 2026-04-29 14:30 | 1.79323 | 109.17987 | 34920 ft | 447 kts | 105° |
| 2026-04-29 14:31 | 1.77692 | 109.23981 | 34923 ft | 447 kts | 105° |
| 2026-04-29 14:31 | 1.76059 | 109.29970 | 34923 ft | 446 kts | 105° |
| 2026-04-29 14:32 | 1.74425 | 109.35954 | 34921 ft | 446 kts | 105° |
| 2026-04-29 14:32 | 1.72789 | 109.41935 | 34920 ft | 446 kts | 105° |
| 2026-04-29 14:33 | 1.71158 | 109.47914 | 34919 ft | 446 kts | 105° |
| 2026-04-29 14:33 | 1.69531 | 109.53892 | 34913 ft | 446 kts | 105° |
| 2026-04-29 14:34 | 1.67923 | 109.59831 | 34916 ft | 446 kts | 105° |
| 2026-04-29 14:34 | 1.66344 | 109.65831 | 34850 ft | 447 kts | 104° |
| 2026-04-29 14:34 | 1.65559 | 109.68836 | 34365 ft | 446 kts | 105° |
| 2026-04-29 14:35 | 1.64775 | 109.71828 | 33715 ft | 445 kts | 105° |
| 2026-04-29 14:35 | 1.63988 | 109.74821 | 32950 ft | 445 kts | 105° |
| 2026-04-29 14:35 | 1.63196 | 109.77817 | 32162 ft | 447 kts | 105° |
| 2026-04-29 14:35 | 1.62399 | 109.80824 | 31372 ft | 448 kts | 105° |
| 2026-04-29 14:36 | 1.61600 | 109.83835 | 30593 ft | 449 kts | 104° |
| 2026-04-29 14:36 | 1.60805 | 109.86844 | 29971 ft | 446 kts | 104° |
| 2026-04-29 14:36 | 1.60018 | 109.89830 | 29349 ft | 441 kts | 104° |
| 2026-04-29 14:36 | 1.59243 | 109.92781 | 28723 ft | 437 kts | 104° |
| 2026-04-29 14:37 | 1.58474 | 109.95701 | 28095 ft | 433 kts | 104° |
| 2026-04-29 14:37 | 1.57708 | 109.98598 | 27510 ft | 429 kts | 104° |
| 2026-04-29 14:37 | 1.56948 | 110.01469 | 26919 ft | 425 kts | 104° |
| 2026-04-29 14:37 | 1.56194 | 110.04314 | 26337 ft | 422 kts | 104° |
| 2026-04-29 14:38 | 1.55616 | 110.07174 | 25764 ft | 418 kts | 96° |
| 2026-04-29 14:38 | 1.55563 | 110.10065 | 25222 ft | 415 kts | 85° |
| 2026-04-29 14:38 | 1.56040 | 110.12899 | 24664 ft | 413 kts | 75° |
| 2026-04-29 14:38 | 1.56855 | 110.15643 | 24109 ft | 411 kts | 74° |
| 2026-04-29 14:39 | 1.57660 | 110.18331 | 23584 ft | 408 kts | 74° |
| 2026-04-29 14:39 | 1.58477 | 110.21080 | 22977 ft | 406 kts | 74° |
| 2026-04-29 14:39 | 1.59271 | 110.23772 | 22405 ft | 402 kts | 74° |
| 2026-04-29 14:39 | 1.60056 | 110.26444 | 21856 ft | 399 kts | 74° |
| 2026-04-29 14:40 | 1.60837 | 110.29092 | 21329 ft | 396 kts | 74° |
| 2026-04-29 14:40 | 1.61606 | 110.31684 | 20822 ft | 393 kts | 74° |
| 2026-04-29 14:40 | 1.62379 | 110.34290 | 20314 ft | 390 kts | 74° |
| 2026-04-29 14:40 | 1.63149 | 110.36874 | 19816 ft | 387 kts | 74° |
| 2026-04-29 14:41 | 1.63935 | 110.39447 | 19033 ft | 392 kts | 74° |
| 2026-04-29 14:41 | 1.64749 | 110.42094 | 18013 ft | 404 kts | 74° |
| 2026-04-29 14:41 | 1.65578 | 110.44791 | 17215 ft | 407 kts | 74° |
| 2026-04-29 14:41 | 1.66402 | 110.47487 | 16586 ft | 404 kts | 73° |
| 2026-04-29 14:42 | 1.67214 | 110.50163 | 16016 ft | 400 kts | 74° |
| 2026-04-29 14:42 | 1.68016 | 110.52819 | 15452 ft | 397 kts | 74° |
| 2026-04-29 14:42 | 1.68807 | 110.55447 | 14907 ft | 393 kts | 74° |
| 2026-04-29 14:42 | 1.69589 | 110.58055 | 14368 ft | 390 kts | 74° |
| 2026-04-29 14:43 | 1.70364 | 110.60649 | 13269 ft | 391 kts | 74° |
| 2026-04-29 14:43 | 1.71140 | 110.63255 | 12055 ft | 390 kts | 74° |
| 2026-04-29 14:43 | 1.71909 | 110.65837 | 10990 ft | 384 kts | 74° |
| 2026-04-29 14:43 | 1.72665 | 110.68375 | 9971 ft | 378 kts | 74° |
| 2026-04-29 14:44 | 1.73411 | 110.70874 | 8876 ft | 372 kts | 74° |
| 2026-04-29 14:44 | 1.74138 | 110.73338 | 7764 ft | 367 kts | 75° |
| 2026-04-29 14:44 | 1.74344 | 110.75814 | 7270 ft | 346 kts | 97° |
| 2026-04-29 14:44 | 1.73627 | 110.77987 | 7143 ft | 318 kts | 120° |
| 2026-04-29 14:45 | 1.72227 | 110.79534 | 7020 ft | 296 kts | 144° |
| 2026-04-29 14:45 | 1.70376 | 110.80282 | 6896 ft | 277 kts | 172° |
| 2026-04-29 14:45 | 1.68553 | 110.80143 | 6783 ft | 259 kts | 193° |
| 2026-04-29 14:45 | 1.66999 | 110.79345 | 6543 ft | 251 kts | 222° |
| 2026-04-29 14:46 | 1.65893 | 110.78019 | 6345 ft | 247 kts | 243° |
| 2026-04-29 14:46 | 1.65313 | 110.76444 | 6210 ft | 236 kts | 253° |
| 2026-04-29 14:46 | 1.64881 | 110.74905 | 6043 ft | 226 kts | 255° |
| 2026-04-29 14:46 | 1.64478 | 110.73404 | 5742 ft | 222 kts | 255° |
| 2026-04-29 14:47 | 1.64081 | 110.71920 | 5444 ft | 219 kts | 255° |
| 2026-04-29 14:47 | 1.63688 | 110.70451 | 5131 ft | 218 kts | 255° |
| 2026-04-29 14:47 | 1.63297 | 110.68997 | 4824 ft | 216 kts | 255° |
| 2026-04-29 14:47 | 1.62841 | 110.67573 | 4479 ft | 215 kts | 243° |
| 2026-04-29 14:48 | 1.61855 | 110.66503 | 4163 ft | 210 kts | 214° |
| 2026-04-29 14:48 | 1.60798 | 110.65518 | 3821 ft | 209 kts | 242° |
| 2026-04-29 14:48 | 1.60224 | 110.64195 | 3487 ft | 208 kts | 248° |
| 2026-04-29 14:48 | 1.59685 | 110.62853 | 3180 ft | 207 kts | 248° |
| 2026-04-29 14:49 | 1.59155 | 110.61521 | 3022 ft | 206 kts | 249° |
| 2026-04-29 14:49 | 1.58627 | 110.60191 | 3018 ft | 206 kts | 249° |
| 2026-04-29 14:49 | 1.58096 | 110.58854 | 3025 ft | 207 kts | 249° |
| 2026-04-29 14:49 | 1.57565 | 110.57516 | 3023 ft | 207 kts | 249° |
| 2026-04-29 14:50 | 1.57034 | 110.56182 | 3022 ft | 207 kts | 249° |
| 2026-04-29 14:50 | 1.56510 | 110.54862 | 3023 ft | 207 kts | 249° |
| 2026-04-29 14:50 | 1.55996 | 110.53568 | 3041 ft | 191 kts | 249° |
| 2026-04-29 14:50 | 1.55531 | 110.52398 | 3013 ft | 171 kts | 249° |
| 2026-04-29 14:51 | 1.55103 | 110.51319 | 2909 ft | 164 kts | 249° |
| 2026-04-29 14:51 | 1.54687 | 110.50273 | 2737 ft | 160 kts | 249° |
| 2026-04-29 14:51 | 1.54287 | 110.49267 | 2577 ft | 153 kts | 249° |
| 2026-04-29 14:51 | 1.53898 | 110.48288 | 2380 ft | 151 kts | 249° |
| 2026-04-29 14:52 | 1.53513 | 110.47318 | 2176 ft | 150 kts | 250° |
| 2026-04-29 14:52 | 1.53131 | 110.46356 | 1988 ft | 148 kts | 249° |
| 2026-04-29 14:52 | 1.52751 | 110.45399 | 1801 ft | 148 kts | 250° |
| 2026-04-29 14:52 | 1.52371 | 110.44443 | 1620 ft | 148 kts | 250° |
| 2026-04-29 14:53 | 1.51996 | 110.43499 | 1414 ft | 147 kts | 250° |
| 2026-04-29 14:53 | 1.51618 | 110.42547 | 1237 ft | 146 kts | 250° |
| 2026-04-29 14:53 | 1.51244 | 110.41606 | 1048 ft | 145 kts | 250° |
| 2026-04-29 14:53 | 1.50872 | 110.40669 | 877 ft | 145 kts | 249° |
| 2026-04-29 14:54 | 1.50500 | 110.39732 | 692 ft | 145 kts | 249° |
| 2026-04-29 14:54 | 1.50128 | 110.38795 | 510 ft | 145 kts | 249° |
| 2026-04-29 14:54 | 1.49755 | 110.37857 | 317 ft | 145 kts | 249° |
| 2026-04-29 14:54 | 1.49382 | 110.36919 | 120 ft | 145 kts | 249° |
| 2026-04-29 14:55 | 1.49029 | 110.36029 | 58 ft | 120 kts | 248° |
| 2026-04-29 14:55 | 1.48794 | 110.35439 | 74 ft | 72 kts | 249° |
| 2026-04-29 14:55 | 1.48772 | 110.35263 | 70 ft | 10 kts | 347° |
| 2026-04-29 14:55 | 1.48853 | 110.35252 | 68 ft | 14 kts | 336° |
| 2026-04-29 14:56 | 1.48869 | 110.35180 | 69 ft | 6 kts | 251° |
| 2026-04-29 14:56 | 1.48836 | 110.35092 | 70 ft | 21 kts | 248° |
| 2026-04-29 14:56 | 1.48774 | 110.34935 | 69 ft | 23 kts | 250° |
| 2026-04-29 14:56 | 1.48722 | 110.34794 | 76 ft | 23 kts | 249° |
| 2026-04-29 14:57 | 1.48655 | 110.34634 | 70 ft | 26 kts | 246° |
| 2026-04-29 14:57 | 1.48698 | 110.34565 | 71 ft | 11 kts | 300° |
| 2026-04-29 14:57 | 1.48674 | 110.34490 | 68 ft | 12 kts | 248° |
| 2026-04-29 14:57 | 1.48708 | 110.34441 | 75 ft | 8 kts | 337° |
| 2026-04-29 14:58 | 1.48723 | 110.34442 | 78 ft | 0 kts | 32° |